AGROMETEOROLOŠKI PORTAL

vinorodna pokrajina

Temelj dobrega kmetovanja

Pregled podatkov za lokacijo Slap, meteorološka postaja 49193

Pregled senzorjev na lokaciji

ID Ime Zadnja
vrednost
Datum in čas
meritve
(lokalni čas)
Tip
senzorja
4318 Omočenost lista (1,5 m) (U) 2 U 29.9.2022 12:00 A730WET
5082 Padavine (mm) 0 mm 29.9.2022 12:00 Generic 0.2 mm
3688 Relativna zračna vlaga (2 m) (%RH) 80 %RH 29.9.2022 12:00 50YA
3691 Temperatura tal (30 cm) (°C) 16,6 °C 29.9.2022 12:00 99TG411E
3687 Temperatura (2 m) (°C) 19,8 °C 29.9.2022 12:00 50YA
6816 Smer vetra (3 m) (°) 191 ° 29.9.2022 12:00 Generic 0 - 360
6815 Hitrost vetra (3 m) (km/h) 7 km/h 29.9.2022 12:00 Pro10/2 270 km/h

Pregled podatkov zadnjih 24 ur

Zap.
št.
Datum in čas
(lokalni čas)
Slap
Omočenost
lista
(1,5
m)
Padavine Relativna
zračna
vlaga
(2
m)
Temperatura
tal
(30
cm)
Temperatura
(2
m)
Smer
vetra
(3
m)
Hitrost
vetra
(3
m)
1 29.9.2022 12:00 2 0 80 16,6 19,8 191,2 7,1
2 29.9.2022 11:30 3 0,4 91,9 16,5 18,3 99,1 4,7
3 29.9.2022 11:00 10 3,2 90,4 16,5 17,9 146,3 5
4 29.9.2022 10:30 9 0,4 91,9 16,6 17,1 328,1 3,3
5 29.9.2022 10:00 0 0 93 16,5 16,7 29,2 2,5
6 29.9.2022 09:30 0 0 95,8 16,5 16 321,3 4,3
7 29.9.2022 09:00 7 0 96,6 16,5 15,8 353,6 2,3
8 29.9.2022 08:30 9 0,2 98,2 16,5 15 198,4 2,6
9 29.9.2022 08:00 9 0 98,7 16,5 15 346,1 4,5
10 29.9.2022 07:30 10 0 99,3 16,5 14,3 182,5 4,8
11 29.9.2022 07:00 10 0 99,3 16,5 14 321,7 1,9
12 29.9.2022 06:30 10 0,8 99 16,5 14 130,3 2,3
13 29.9.2022 06:00 10 2,6 98,2 16,5 14 177,7 2,3
14 29.9.2022 05:30 10 0 98,1 16,5 14,1 268,2 2,7
15 29.9.2022 05:00 10 0 98,3 16,6 13,8 203,3 2,9
16 29.9.2022 04:30 10 1 98,2 16,6 13,8 308,8 1,2
17 29.9.2022 04:00 5 0 98,6 16,6 13,8 64,1 1,4
18 29.9.2022 03:30 4 0 99 16,6 13,5 216,3 1,4
19 29.9.2022 03:00 3 0 99,3 16,6 13,7 208,7 3,8
20 29.9.2022 02:30 4 0 99,3 16,6 13,6 283,4 4,3
21 29.9.2022 02:00 3 0 99,2 16,6 13,6 310,4 2,6
22 29.9.2022 01:30 2 0 99,2 16,6 13,7 167,9 2,6
23 29.9.2022 01:00 10 0 99,2 16,6 13,6 171,3 5,1
24 29.9.2022 00:30 10 0 99,2 16,7 13,5 188,5 5
25 29.9.2022 00:00 10 0 99,1 16,7 13,5 201 4,6
26 28.9.2022 23:30 10 0,2 99 16,6 13,5 165,3 6,2
27 28.9.2022 23:00 9 2,4 98,8 16,7 13,6 144,1 3,9
28 28.9.2022 22:30 10 6,4 98,8 16,7 14,4 6,1 5,3
29 28.9.2022 22:00 10 4,8 98,6 16,7 14,5 158,6 4,1
30 28.9.2022 21:30 9 7,4 98,3 16,7 14,7 195,2 3,5
31 28.9.2022 21:00 10 6 97,3 16,7 14,9 279,4 4
32 28.9.2022 20:30 10 4,2 94,5 16,7 15,1 252,8 4,6
33 28.9.2022 20:00 10 0,4 89,4 16,6 15,8 297,3 2,9
34 28.9.2022 19:30 10 0 86,1 16,6 16,3 220,2 2,2
35 28.9.2022 19:00 9 0,4 79,5 16,6 17,3 179 4,3
36 28.9.2022 18:30 0 0 73,2 16,6 18,3 247,3 3,9
37 28.9.2022 18:00 0 0 69,8 16,6 19,1 265,1 3,6
38 28.9.2022 17:30 0 0 67,9 16,6 19,5 228,7 4,7
39 28.9.2022 17:00 0 0 67,5 16,6 19,5 207,3 4,6
40 28.9.2022 16:30 0 0 65,9 16,6 19,8 234,5 6,2
41 28.9.2022 16:00 0 0 66,7 16,6 19,9 228,8 5,4
42 28.9.2022 15:30 7 0 67,6 16,5 19,4 278,2 8
43 28.9.2022 15:00 1 0 71,5 16,5 19,2 237,3 4,9
44 28.9.2022 14:30 0 0 70,3 16,5 19,2 145,2 7,4
45 28.9.2022 14:00 0 0 70,9 16,5 17,9 30,8 3,7
46 28.9.2022 13:30 0 0 70,2 16,5 17,6 312,4 3,8